PWSweather.com
Personal Weather Stations
Station Observations
WILS01
Leuven, WilseleBE 3012

LeuvenWilseleBE 3012

Lat: 50.89518, Lon: 4.69741

Elevation: 120

Station Type: DAVIS VP2

Latest ConditionsUpdated 9:33:51 PM GMT+01:01 Friday, Apr 18, 2014
Currently Today's Max Today's Min Today's Average
Temperature 46.9°F8.3°C 58.8°F14.9°C 43.9°F6.6°C 51.1°F10.6°C
Dew Point 38.1°F3.4°C 46.2°F7.9°C 35.4°F1.9°C 41.1°F5.1°C
Winds 0.9 mph WNW1.4 kmh WNW 4.0 mph NW6.4 kmh NW - 1.5 mph 2.4 kmh
Wind Gusts 1.1 mph1.8 kmh 4.3 mph6.9 kmh - -
Humidity 71% 89% 43% 70%
Pressure 30.03 in1016.9 mb 30.03 in1016.9 mb 29.95 in1014.2 mb -
Precipitation - 0.01 in0.3 mm - -
Hour Temp Dew Point Humidity Winds Wind Gusts Pressure Precip Precip Rate Daily Precip Total
09:33 PM 46.9°F8.3°C 38.1°F3.4°C 71% 0.9 mph WNW1.4 kmh WNW 1.1 mph1.8 kmh 30.03 in1016.9 mb 0.00 in0.0 mm 0.00 in/hr0.0 mm/hr 0.01 in0.3 mm
09:23 PM 47.5°F8.6°C 38.5°F3.6°C 71% 0.9 mph NW1.4 kmh NW 0.9 mph1.4 kmh 30.03 in1016.9 mb 0.00 in0.0 mm 0.00 in/hr0.0 mm/hr 0.01 in0.3 mm
09:12 PM 47.7°F8.7°C 38.7°F3.7°C 71% 0.9 mph NE1.4 kmh NE 0.7 mph1.1 kmh 30.03 in1016.9 mb 0.00 in0.0 mm 0.00 in/hr0.0 mm/hr 0.01 in0.3 mm
09:02 PM 47.8°F8.8°C 38.8°F3.8°C 71% 0.9 mph NE1.4 kmh NE 1.1 mph1.8 kmh 30.02 in1016.6 mb 0.00 in0.0 mm 0.00 in/hr0.0 mm/hr 0.01 in0.3 mm
08:52 PM 48.0°F8.9°C 39.0°F3.9°C 71% 0.9 mph NNW1.4 kmh NNW 0.9 mph1.4 kmh 30.03 in1016.9 mb 0.00 in0.0 mm 0.00 in/hr0.0 mm/hr 0.01 in0.3 mm
08:42 PM 48.2°F9.0°C 39.2°F4.0°C 71% 0.9 mph NE1.4 kmh NE 0.9 mph1.4 kmh 30.03 in1016.9 mb 0.00 in0.0 mm 0.00 in/hr0.0 mm/hr 0.01 in0.3 mm
08:32 PM 48.6°F9.2°C 39.2°F4.0°C 69% 0.9 mph NW1.4 kmh NW 1.1 mph1.8 kmh 30.02 in1016.6 mb 0.00 in0.0 mm 0.00 in/hr0.0 mm/hr 0.01 in0.3 mm
08:21 PM 49.1°F9.5°C 39.0°F3.9°C 68% 0.9 mph SE1.4 kmh SE 1.3 mph2.1 kmh 30.02 in1016.6 mb 0.00 in0.0 mm 0.00 in/hr0.0 mm/hr 0.01 in0.3 mm
08:11 PM 49.5°F9.7°C 39.2°F4.0°C 67% 0.9 mph WNW1.4 kmh WNW 1.8 mph2.9 kmh 30.02 in1016.6 mb 0.00 in0.0 mm 0.00 in/hr0.0 mm/hr 0.01 in0.3 mm
08:01 PM 50.0°F10.0°C 39.6°F4.2°C 67% 1.6 mph E2.6 kmh E 0.7 mph1.1 kmh 30.02 in1016.6 mb 0.00 in0.0 mm 0.00 in/hr0.0 mm/hr 0.01 in0.3 mm
07:50 PM 50.5°F10.3°C 39.6°F4.2°C 66% 1.8 mph NE2.9 kmh NE 1.3 mph2.1 kmh 30.01 in1016.3 mb 0.00 in0.0 mm 0.00 in/hr0.0 mm/hr 0.01 in0.3 mm
07:39 PM 51.6°F10.9°C 40.3°F4.6°C 65% 2.0 mph NW3.2 kmh NW 1.6 mph2.6 kmh 30.01 in1016.3 mb 0.00 in0.0 mm 0.00 in/hr0.0 mm/hr 0.01 in0.3 mm
07:29 PM 52.2°F11.2°C 40.8°F4.9°C 65% 2.7 mph NE4.3 kmh NE 2.9 mph4.7 kmh 30.01 in1016.3 mb 0.00 in0.0 mm 0.00 in/hr0.0 mm/hr 0.01 in0.3 mm
07:18 PM 53.1°F11.7°C 41.4°F5.2°C 64% 0.9 mph NE1.4 kmh NE 2.0 mph3.2 kmh 30.01 in1016.3 mb 0.00 in0.0 mm 0.00 in/hr0.0 mm/hr 0.01 in0.3 mm
07:08 PM 53.4°F11.9°C 41.7°F5.4°C 64% 1.1 mph WNW1.8 kmh WNW 1.3 mph2.1 kmh 30.01 in1016.3 mb 0.00 in0.0 mm 0.00 in/hr0.0 mm/hr 0.01 in0.3 mm
06:58 PM 53.8°F12.1°C 41.9°F5.5°C 64% 1.8 mph W2.9 kmh W 1.1 mph1.8 kmh 30.00 in1015.9 mb 0.00 in0.0 mm 0.00 in/hr0.0 mm/hr 0.01 in0.3 mm
06:47 PM 53.8°F12.1°C 41.9°F5.5°C 64% 0.9 mph WNW1.4 kmh WNW 0.7 mph1.1 kmh 30.00 in1015.9 mb 0.00 in0.0 mm 0.00 in/hr0.0 mm/hr 0.01 in0.3 mm
06:37 PM 53.4°F11.9°C 41.4°F5.2°C 63% 0.9 mph NW1.4 kmh NW 1.3 mph2.1 kmh 30.01 in1016.3 mb 0.00 in0.0 mm 0.00 in/hr0.0 mm/hr 0.01 in0.3 mm
06:27 PM 53.4°F11.9°C 41.2°F5.1°C 63% 2.0 mph WNW3.2 kmh WNW 1.6 mph2.6 kmh 30.01 in1016.3 mb 0.00 in0.0 mm 0.00 in/hr0.0 mm/hr 0.01 in0.3 mm
06:16 PM 53.2°F11.8°C 41.0°F5.0°C 62% 2.0 mph W3.2 kmh W 2.0 mph3.2 kmh 30.01 in1016.3 mb 0.00 in0.0 mm 0.00 in/hr0.0 mm/hr 0.01 in0.3 mm
06:06 PM 53.6°F12.0°C 40.6°F4.8°C 61% 1.8 mph WNW2.9 kmh WNW 2.7 mph4.3 kmh 30.01 in1016.3 mb 0.00 in0.0 mm 0.00 in/hr0.0 mm/hr 0.01 in0.3 mm
05:56 PM 54.0°F12.2°C 40.8°F4.9°C 61% 1.8 mph WNW2.9 kmh WNW 1.8 mph2.9 kmh 30.01 in1016.3 mb 0.00 in0.0 mm 0.00 in/hr0.0 mm/hr 0.01 in0.3 mm
05:46 PM 54.5°F12.5°C 40.1°F4.5°C 58% 2.0 mph WNW3.2 kmh WNW 1.6 mph2.6 kmh 30.01 in1016.3 mb 0.00 in0.0 mm 0.00 in/hr0.0 mm/hr 0.01 in0.3 mm
05:35 PM 55.4°F13.0°C 39.9°F4.4°C 56% 2.0 mph SE3.2 kmh SE 2.0 mph3.2 kmh 30.01 in1016.3 mb 0.00 in0.0 mm 0.00 in/hr0.0 mm/hr 0.01 in0.3 mm
05:25 PM 55.6°F13.1°C 40.1°F4.5°C 56% 2.0 mph W3.2 kmh W 1.8 mph2.9 kmh 30.01 in1016.3 mb 0.00 in0.0 mm 0.00 in/hr0.0 mm/hr 0.01 in0.3 mm
05:15 PM 55.6°F13.1°C 39.6°F4.2°C 54% 2.5 mph E4.0 kmh E 2.5 mph4.0 kmh 30.01 in1016.3 mb 0.00 in0.0 mm 0.00 in/hr0.0 mm/hr 0.01 in0.3 mm
05:04 PM 55.4°F13.0°C 39.4°F4.1°C 55% 2.5 mph WNW4.0 kmh WNW 2.0 mph3.2 kmh 30.01 in1016.3 mb 0.00 in0.0 mm 0.00 in/hr0.0 mm/hr 0.01 in0.3 mm
04:54 PM 56.3°F13.5°C 39.2°F4.0°C 52% 3.1 mph W5.0 kmh W 2.9 mph4.7 kmh 30.01 in1016.3 mb 0.00 in0.0 mm 0.00 in/hr0.0 mm/hr 0.01 in0.3 mm
04:44 PM 57.4°F14.1°C 39.4°F4.1°C 50% 2.9 mph WNW4.7 kmh WNW 2.7 mph4.3 kmh 30.01 in1016.3 mb 0.00 in0.0 mm 0.00 in/hr0.0 mm/hr 0.01 in0.3 mm
04:33 PM 57.9°F14.4°C 39.0°F3.9°C 49% 2.9 mph WNW4.7 kmh WNW 2.7 mph4.3 kmh 30.01 in1016.3 mb 0.00 in0.0 mm 0.00 in/hr0.0 mm/hr 0.01 in0.3 mm
04:23 PM 57.9°F14.4°C 37.9°F3.3°C 47% 2.9 mph NW4.7 kmh NW 2.5 mph4.0 kmh 30.01 in1016.3 mb 0.00 in0.0 mm 0.00 in/hr0.0 mm/hr 0.01 in0.3 mm
04:12 PM 58.1°F14.5°C 37.8°F3.2°C 46% 2.9 mph NW4.7 kmh NW 2.7 mph4.3 kmh 30.01 in1016.3 mb 0.00 in0.0 mm 0.00 in/hr0.0 mm/hr 0.01 in0.3 mm
04:02 PM 57.9°F14.4°C 37.8°F3.2°C 47% 2.0 mph W3.2 kmh W 2.5 mph4.0 kmh 30.01 in1016.3 mb 0.00 in0.0 mm 0.00 in/hr0.0 mm/hr 0.01 in0.3 mm
03:51 PM 57.7°F14.3°C 37.9°F3.3°C 47% 2.2 mph NW3.5 kmh NW 2.2 mph3.5 kmh 30.01 in1016.3 mb 0.00 in0.0 mm 0.00 in/hr0.0 mm/hr 0.01 in0.3 mm
03:41 PM 57.9°F14.4°C 37.2°F2.9°C 45% 2.5 mph WNW4.0 kmh WNW 2.5 mph4.0 kmh 30.01 in1016.3 mb 0.00 in0.0 mm 0.00 in/hr0.0 mm/hr 0.01 in0.3 mm
03:30 PM 57.6°F14.2°C 36.3°F2.4°C 44% 2.2 mph NW3.5 kmh NW 2.5 mph4.0 kmh 30.01 in1016.3 mb 0.00 in0.0 mm 0.00 in/hr0.0 mm/hr 0.01 in0.3 mm
03:20 PM 57.9°F14.4°C 37.8°F3.2°C 47% 2.0 mph WNW3.2 kmh WNW 2.0 mph3.2 kmh 30.02 in1016.6 mb 0.00 in0.0 mm 0.00 in/hr0.0 mm/hr 0.01 in0.3 mm
03:10 PM 58.8°F14.9°C 38.1°F3.4°C 46% 2.9 mph WNW4.7 kmh WNW 2.9 mph4.7 kmh 30.01 in1016.3 mb 0.00 in0.0 mm 0.00 in/hr0.0 mm/hr 0.01 in0.3 mm
03:00 PM 58.5°F14.7°C 37.0°F2.8°C 44% 2.9 mph W4.7 kmh W 3.4 mph5.5 kmh 30.01 in1016.3 mb 0.00 in0.0 mm 0.00 in/hr0.0 mm/hr 0.01 in0.3 mm
02:49 PM 57.6°F14.2°C 35.4°F1.9°C 43% 2.9 mph NW4.7 kmh NW 2.7 mph4.3 kmh 30.01 in1016.3 mb 0.00 in0.0 mm 0.00 in/hr0.0 mm/hr 0.01 in0.3 mm
02:39 PM 57.4°F14.1°C 36.1°F2.3°C 45% 2.9 mph SE4.7 kmh SE 2.0 mph3.2 kmh 30.02 in1016.6 mb 0.00 in0.0 mm 0.00 in/hr0.0 mm/hr 0.01 in0.3 mm
02:28 PM 56.7°F13.7°C 36.7°F2.6°C 47% 2.9 mph NE4.7 kmh NE 2.9 mph4.7 kmh 30.02 in1016.6 mb 0.00 in0.0 mm 0.00 in/hr0.0 mm/hr 0.01 in0.3 mm
02:18 PM 55.9°F13.3°C 37.9°F3.3°C 50% 2.9 mph WNW4.7 kmh WNW 2.9 mph4.7 kmh 30.02 in1016.6 mb 0.00 in0.0 mm 0.00 in/hr0.0 mm/hr 0.01 in0.3 mm
02:08 PM 56.7°F13.7°C 37.4°F3.0°C 48% 2.0 mph NNE3.2 kmh NNE 2.7 mph4.3 kmh 30.02 in1016.6 mb 0.00 in0.0 mm 0.00 in/hr0.0 mm/hr 0.01 in0.3 mm
01:57 PM 56.7°F13.7°C 37.4°F3.0°C 48% 2.9 mph W4.7 kmh W 2.9 mph4.7 kmh 30.02 in1016.6 mb 0.00 in0.0 mm 0.00 in/hr0.0 mm/hr 0.01 in0.3 mm
01:47 PM 56.8°F13.8°C 39.2°F4.0°C 51% 2.0 mph W3.2 kmh W 2.2 mph3.5 kmh 30.02 in1016.6 mb 0.00 in0.0 mm 0.00 in/hr0.0 mm/hr 0.01 in0.3 mm
01:36 PM 57.0°F13.9°C 39.4°F4.1°C 51% 2.0 mph SE3.2 kmh SE 2.9 mph4.7 kmh 30.02 in1016.6 mb 0.00 in0.0 mm 0.00 in/hr0.0 mm/hr 0.01 in0.3 mm
01:26 PM 56.1°F13.4°C 38.8°F3.8°C 52% 2.0 mph ENE3.2 kmh ENE 2.5 mph4.0 kmh 30.02 in1016.6 mb 0.00 in0.0 mm 0.00 in/hr0.0 mm/hr 0.01 in0.3 mm
01:15 PM 54.9°F12.7°C 40.3°F4.6°C 57% 2.0 mph SE3.2 kmh SE 1.6 mph2.6 kmh 30.02 in1016.6 mb 0.00 in0.0 mm 0.00 in/hr0.0 mm/hr 0.01 in0.3 mm
01:05 PM 54.3°F12.4°C 38.8°F3.8°C 55% 2.0 mph W3.2 kmh W 1.8 mph2.9 kmh 30.02 in1016.6 mb 0.00 in0.0 mm 0.00 in/hr0.0 mm/hr 0.01 in0.3 mm
12:55 PM 54.9°F12.7°C 39.0°F3.9°C 54% 2.9 mph NW4.7 kmh NW 2.0 mph3.2 kmh 30.02 in1016.6 mb 0.00 in0.0 mm 0.00 in/hr0.0 mm/hr 0.01 in0.3 mm
12:44 PM 55.4°F13.0°C 38.5°F3.6°C 53% 4.0 mph NW6.4 kmh NW 3.1 mph5.0 kmh 30.02 in1016.6 mb 0.00 in0.0 mm 0.00 in/hr0.0 mm/hr 0.01 in0.3 mm
12:34 PM 55.9°F13.3°C 38.3°F3.5°C 51% 3.1 mph NW5.0 kmh NW 4.3 mph6.9 kmh 30.01 in1016.3 mb 0.00 in0.0 mm 0.00 in/hr0.0 mm/hr 0.01 in0.3 mm
12:24 PM 54.5°F12.5°C 38.7°F3.7°C 55% 2.0 mph NE3.2 kmh NE 2.7 mph4.3 kmh 30.01 in1016.3 mb 0.00 in0.0 mm 0.00 in/hr0.0 mm/hr 0.01 in0.3 mm
12:13 PM 53.6°F12.0°C 37.9°F3.3°C 55% 2.0 mph ESE3.2 kmh ESE 2.0 mph3.2 kmh 30.01 in1016.3 mb 0.00 in0.0 mm 0.00 in/hr0.0 mm/hr 0.01 in0.3 mm
12:03 PM 54.1°F12.3°C 39.2°F4.0°C 57% 2.9 mph NW4.7 kmh NW 2.7 mph4.3 kmh 30.01 in1016.3 mb 0.00 in0.0 mm 0.00 in/hr0.0 mm/hr 0.01 in0.3 mm
11:53 AM 54.9°F12.7°C 40.3°F4.6°C 58% 2.0 mph W3.2 kmh W 2.7 mph4.3 kmh 30.01 in1016.3 mb 0.00 in0.0 mm 0.00 in/hr0.0 mm/hr 0.01 in0.3 mm
11:43 AM 55.2°F12.9°C 39.6°F4.2°C 55% 2.0 mph SE3.2 kmh SE 1.8 mph2.9 kmh 30.01 in1016.3 mb 0.00 in0.0 mm 0.00 in/hr0.0 mm/hr 0.01 in0.3 mm
11:32 AM 56.7°F13.7°C 39.2°F4.0°C 52% 2.0 mph WNW3.2 kmh WNW 2.5 mph4.0 kmh 30.01 in1016.3 mb 0.00 in0.0 mm 0.00 in/hr0.0 mm/hr 0.01 in0.3 mm
11:22 AM 56.1°F13.4°C 39.6°F4.2°C 54% 2.0 mph NW3.2 kmh NW 2.7 mph4.3 kmh 30.01 in1016.3 mb 0.00 in0.0 mm 0.00 in/hr0.0 mm/hr 0.01 in0.3 mm
11:11 AM 55.4°F13.0°C 39.9°F4.4°C 56% 2.0 mph NW3.2 kmh NW 2.7 mph4.3 kmh 30.01 in1016.3 mb 0.00 in0.0 mm 0.00 in/hr0.0 mm/hr 0.01 in0.3 mm
11:01 AM 54.5°F12.5°C 39.6°F4.2°C 57% 2.9 mph WNW4.7 kmh WNW 1.8 mph2.9 kmh 30.01 in1016.3 mb 0.00 in0.0 mm 0.00 in/hr0.0 mm/hr 0.01 in0.3 mm
10:50 AM 54.1°F12.3°C 39.9°F4.4°C 58% 2.0 mph WNW3.2 kmh WNW 2.5 mph4.0 kmh 30.01 in1016.3 mb 0.00 in0.0 mm 0.00 in/hr0.0 mm/hr 0.01 in0.3 mm
10:40 AM 53.8°F12.1°C 40.6°F4.8°C 61% 2.0 mph SSE3.2 kmh SSE 2.2 mph3.5 kmh 30.01 in1016.3 mb 0.00 in0.0 mm 0.00 in/hr0.0 mm/hr 0.01 in0.3 mm
10:29 AM 53.8°F12.1°C 41.2°F5.1°C 62% 0.9 mph WSW1.4 kmh WSW 2.0 mph3.2 kmh 30.01 in1016.3 mb 0.00 in0.0 mm 0.00 in/hr0.0 mm/hr 0.01 in0.3 mm
10:19 AM 53.1°F11.7°C 41.4°F5.2°C 64% 0.9 mph NNE1.4 kmh NNE 1.6 mph2.6 kmh 30.01 in1016.3 mb 0.00 in0.0 mm 0.00 in/hr0.0 mm/hr 0.01 in0.3 mm
10:08 AM 52.5°F11.4°C 41.0°F5.0°C 64% 2.0 mph NW3.2 kmh NW 1.8 mph2.9 kmh 30.01 in1016.3 mb 0.00 in0.0 mm 0.00 in/hr0.0 mm/hr 0.01 in0.3 mm
09:58 AM 52.5°F11.4°C 41.2°F5.1°C 65% 2.5 mph NW4.0 kmh NW 2.0 mph3.2 kmh 30.01 in1016.3 mb 0.00 in0.0 mm 0.00 in/hr0.0 mm/hr 0.01 in0.3 mm
09:48 AM 52.2°F11.2°C 42.3°F5.7°C 69% 2.0 mph NW3.2 kmh NW 3.1 mph5.0 kmh 30.01 in1016.3 mb 0.00 in0.0 mm 0.00 in/hr0.0 mm/hr 0.01 in0.3 mm
09:38 AM 50.9°F10.5°C 41.9°F5.5°C 71% 2.0 mph ENE3.2 kmh ENE 2.0 mph3.2 kmh 30.01 in1016.3 mb 0.00 in0.0 mm 0.00 in/hr0.0 mm/hr 0.01 in0.3 mm
09:28 AM 50.2°F10.1°C 40.8°F4.9°C 70% 2.9 mph E4.7 kmh E 2.5 mph4.0 kmh 30.01 in1016.3 mb 0.00 in0.0 mm 0.00 in/hr0.0 mm/hr 0.01 in0.3 mm
09:17 AM 49.8°F9.9°C 40.8°F4.9°C 71% 2.5 mph NW4.0 kmh NW 2.7 mph4.3 kmh 30.01 in1016.3 mb 0.00 in0.0 mm 0.00 in/hr0.0 mm/hr 0.01 in0.3 mm
09:07 AM 50.2°F10.1°C 41.2°F5.1°C 71% 2.0 mph NE3.2 kmh NE 2.5 mph4.0 kmh 30.01 in1016.3 mb 0.00 in0.0 mm 0.00 in/hr0.0 mm/hr 0.01 in0.3 mm
08:56 AM 50.5°F10.3°C 42.3°F5.7°C 73% 2.0 mph SSE3.2 kmh SSE 2.0 mph3.2 kmh 30.01 in1016.3 mb 0.00 in0.0 mm 0.00 in/hr0.0 mm/hr 0.01 in0.3 mm
08:46 AM 50.0°F10.0°C 43.0°F6.1°C 76% 2.0 mph NE3.2 kmh NE 2.5 mph4.0 kmh 30.01 in1016.3 mb 0.00 in0.0 mm 0.00 in/hr0.0 mm/hr 0.01 in0.3 mm
08:36 AM 49.1°F9.5°C 42.8°F6.0°C 79% 1.8 mph NW2.9 kmh NW 2.2 mph3.5 kmh 30.01 in1016.3 mb 0.00 in0.0 mm 0.00 in/hr0.0 mm/hr 0.01 in0.3 mm
08:25 AM 48.0°F8.9°C 42.4°F5.8°C 81% 2.0 mph SSW3.2 kmh SSW 1.6 mph2.6 kmh 30.01 in1016.3 mb 0.00 in0.0 mm 0.00 in/hr0.0 mm/hr 0.01 in0.3 mm
08:15 AM 47.7°F8.7°C 42.6°F5.9°C 82% 2.0 mph SW3.2 kmh SW 2.0 mph3.2 kmh 30.01 in1016.3 mb 0.00 in0.0 mm 0.00 in/hr0.0 mm/hr 0.01 in0.3 mm
08:05 AM 46.8°F8.2°C 43.0°F6.1°C 86% 2.0 mph NW3.2 kmh NW 2.7 mph4.3 kmh 30.00 in1015.9 mb 0.00 in0.0 mm 0.00 in/hr0.0 mm/hr 0.01 in0.3 mm
07:54 AM 46.0°F7.8°C 42.4°F5.8°C 87% 0.9 mph WNW1.4 kmh WNW 1.6 mph2.6 kmh 30.00 in1015.9 mb 0.00 in0.0 mm 0.00 in/hr0.0 mm/hr 0.01 in0.3 mm
07:44 AM 45.5°F7.5°C 42.1°F5.6°C 88% 0.9 mph WNW1.4 kmh WNW 1.3 mph2.1 kmh 29.99 in1015.6 mb 0.00 in0.0 mm 0.00 in/hr0.0 mm/hr 0.01 in0.3 mm
07:33 AM 45.1°F7.3°C 41.9°F5.5°C 88% 1.6 mph WNW2.6 kmh WNW 1.1 mph1.8 kmh 29.99 in1015.6 mb 0.00 in0.0 mm 0.00 in/hr0.0 mm/hr 0.01 in0.3 mm
07:23 AM 44.8°F7.1°C 41.7°F5.4°C 89% 0.9 mph SSE1.4 kmh SSE 1.3 mph2.1 kmh 29.99 in1015.6 mb 0.00 in0.0 mm 0.00 in/hr0.0 mm/hr 0.01 in0.3 mm
07:13 AM 44.4°F6.9°C 41.4°F5.2°C 89% 0.9 mph WNW1.4 kmh WNW 1.1 mph1.8 kmh 29.99 in1015.6 mb 0.00 in0.0 mm 0.00 in/hr0.0 mm/hr 0.01 in0.3 mm
07:02 AM 44.2°F6.8°C 41.2°F5.1°C 89% 0.9 mph W1.4 kmh W 1.3 mph2.1 kmh 29.99 in1015.6 mb 0.00 in0.0 mm 0.00 in/hr0.0 mm/hr 0.01 in0.3 mm
06:52 AM 44.1°F6.7°C 41.0°F5.0°C 89% 0.9 mph WNW1.4 kmh WNW 1.6 mph2.6 kmh 29.98 in1015.2 mb 0.00 in0.0 mm 0.00 in/hr0.0 mm/hr 0.01 in0.3 mm
06:41 AM 43.9°F6.6°C 40.8°F4.9°C 89% 0.2 mph WNW0.3 kmh WNW 1.1 mph1.8 kmh 29.98 in1015.2 mb 0.00 in0.0 mm 0.00 in/hr0.0 mm/hr 0.01 in0.3 mm
06:31 AM 43.9°F6.6°C 40.8°F4.9°C 89% Calm Calm 0.9 mph1.4 kmh 29.98 in1015.2 mb 0.00 in0.0 mm 0.00 in/hr0.0 mm/hr 0.01 in0.3 mm
06:21 AM 43.9°F6.6°C 40.8°F4.9°C 89% Calm Calm 1.1 mph1.8 kmh 29.97 in1014.9 mb 0.00 in0.0 mm 0.00 in/hr0.0 mm/hr 0.01 in0.3 mm
06:10 AM 44.1°F6.7°C 41.0°F5.0°C 89% Calm Calm 0.7 mph1.1 kmh 29.98 in1015.2 mb 0.00 in0.0 mm 0.00 in/hr0.0 mm/hr 0.01 in0.3 mm
06:00 AM 44.1°F6.7°C 41.0°F5.0°C 89% 0.4 mph W0.6 kmh W 0.7 mph1.1 kmh 29.97 in1014.9 mb 0.00 in0.0 mm 0.00 in/hr0.0 mm/hr 0.01 in0.3 mm
05:50 AM 44.2°F6.8°C 41.2°F5.1°C 89% 0.9 mph W1.4 kmh W 0.7 mph1.1 kmh 29.97 in1014.9 mb 0.00 in0.0 mm 0.00 in/hr0.0 mm/hr 0.01 in0.3 mm
05:39 AM 44.4°F6.9°C 41.4°F5.2°C 89% Calm Calm 0.9 mph1.4 kmh 29.97 in1014.9 mb 0.00 in0.0 mm 0.00 in/hr0.0 mm/hr 0.01 in0.3 mm
05:29 AM 45.0°F7.2°C 41.5°F5.3°C 88% Calm Calm 0.7 mph1.1 kmh 29.97 in1014.9 mb 0.00 in0.0 mm 0.00 in/hr0.0 mm/hr 0.01 in0.3 mm
05:19 AM 45.1°F7.3°C 41.7°F5.4°C 88% Calm Calm 0.9 mph1.4 kmh 29.96 in1014.6 mb 0.00 in0.0 mm 0.00 in/hr0.0 mm/hr 0.01 in0.3 mm
05:08 AM 45.5°F7.5°C 42.1°F5.6°C 88% Calm Calm 0.7 mph1.1 kmh 29.96 in1014.6 mb 0.00 in0.0 mm 0.00 in/hr0.0 mm/hr 0.01 in0.3 mm
04:58 AM 45.9°F7.7°C 42.4°F5.8°C 88% Calm Calm 0.4 mph0.6 kmh 29.96 in1014.6 mb 0.00 in0.0 mm 0.00 in/hr0.0 mm/hr 0.01 in0.3 mm
04:48 AM 46.0°F7.8°C 42.6°F5.9°C 88% Calm Calm 0.4 mph0.6 kmh 29.96 in1014.6 mb 0.00 in0.0 mm 0.00 in/hr0.0 mm/hr 0.01 in0.3 mm
04:37 AM 46.2°F7.9°C 42.8°F6.0°C 88% 0.9 mph NW1.4 kmh NW 0.9 mph1.4 kmh 29.96 in1014.6 mb 0.00 in0.0 mm 0.00 in/hr0.0 mm/hr 0.01 in0.3 mm
04:27 AM 46.8°F8.2°C 43.3°F6.3°C 88% Calm Calm 0.2 mph0.3 kmh 29.96 in1014.6 mb 0.00 in0.0 mm 0.00 in/hr0.0 mm/hr 0.01 in0.3 mm
04:17 AM 46.9°F8.3°C 43.5°F6.4°C 88% Calm Calm -- 29.96 in1014.6 mb 0.00 in0.0 mm 0.00 in/hr0.0 mm/hr 0.01 in0.3 mm
04:06 AM 47.3°F8.5°C 43.9°F6.6°C 88% Calm Calm -- 29.96 in1014.6 mb 0.00 in0.0 mm 0.00 in/hr0.0 mm/hr 0.01 in0.3 mm
03:56 AM 47.5°F8.6°C 44.1°F6.7°C 88% Calm Calm 0.4 mph0.6 kmh 29.96 in1014.6 mb 0.00 in0.0 mm 0.00 in/hr0.0 mm/hr 0.01 in0.3 mm
03:46 AM 47.8°F8.8°C 44.4°F6.9°C 88% 0.2 mph WNW0.3 kmh WNW 0.4 mph0.6 kmh 29.96 in1014.6 mb 0.00 in0.0 mm 0.00 in/hr0.0 mm/hr 0.01 in0.3 mm
03:35 AM 48.0°F8.9°C 44.6°F7.0°C 88% 0.9 mph WNW1.4 kmh WNW 1.3 mph2.1 kmh 29.96 in1014.6 mb 0.00 in0.0 mm 0.00 in/hr0.0 mm/hr 0.01 in0.3 mm
03:25 AM 48.4°F9.1°C 45.0°F7.2°C 88% Calm Calm 1.3 mph2.1 kmh 29.96 in1014.6 mb 0.00 in0.0 mm 0.00 in/hr0.0 mm/hr 0.01 in0.3 mm
03:15 AM 48.6°F9.2°C 45.5°F7.5°C 89% 0.9 mph WNW1.4 kmh WNW 0.4 mph0.6 kmh 29.96 in1014.6 mb 0.00 in0.0 mm 0.00 in/hr0.0 mm/hr 0.01 in0.3 mm
03:04 AM 48.6°F9.2°C 45.5°F7.5°C 89% Calm Calm 1.6 mph2.6 kmh 29.96 in1014.6 mb 0.00 in0.0 mm 0.00 in/hr0.0 mm/hr 0.01 in0.3 mm
02:54 AM 48.6°F9.2°C 45.5°F7.5°C 89% 0.2 mph W0.3 kmh W 0.7 mph1.1 kmh 29.95 in1014.2 mb 0.00 in0.0 mm 0.00 in/hr0.0 mm/hr 0.01 in0.3 mm
02:43 AM 48.7°F9.3°C 45.7°F7.6°C 89% Calm Calm 1.1 mph1.8 kmh 29.95 in1014.2 mb 0.00 in0.0 mm 0.00 in/hr0.0 mm/hr 0.01 in0.3 mm
02:33 AM 48.7°F9.3°C 45.3°F7.4°C 88% Calm Calm 0.7 mph1.1 kmh 29.95 in1014.2 mb 0.00 in0.0 mm 0.00 in/hr0.0 mm/hr 0.01 in0.3 mm
02:23 AM 48.6°F9.2°C 45.1°F7.3°C 88% 0.2 mph WSW0.3 kmh WSW 0.2 mph0.3 kmh 29.95 in1014.2 mb 0.00 in0.0 mm 0.00 in/hr0.0 mm/hr 0.01 in0.3 mm
02:12 AM 48.7°F9.3°C 45.3°F7.4°C 88% 0.4 mph SW0.6 kmh SW 0.9 mph1.4 kmh 29.95 in1014.2 mb 0.00 in0.0 mm 0.00 in/hr0.0 mm/hr 0.01 in0.3 mm
02:02 AM 48.7°F9.3°C 45.3°F7.4°C 88% Calm Calm 0.7 mph1.1 kmh 29.95 in1014.2 mb 0.00 in0.0 mm 0.00 in/hr0.0 mm/hr 0.01 in0.3 mm
01:52 AM 48.7°F9.3°C 45.3°F7.4°C 88% Calm Calm 0.7 mph1.1 kmh 29.96 in1014.6 mb 0.00 in0.0 mm 0.00 in/hr0.0 mm/hr 0.01 in0.3 mm
01:41 AM 48.7°F9.3°C 45.3°F7.4°C 88% Calm Calm 0.9 mph1.4 kmh 29.96 in1014.6 mb 0.00 in0.0 mm 0.00 in/hr0.0 mm/hr 0.01 in0.3 mm
01:31 AM 48.7°F9.3°C 45.0°F7.2°C 87% Calm Calm -- 29.96 in1014.6 mb 0.00 in0.0 mm 0.00 in/hr0.0 mm/hr 0.01 in0.3 mm
01:21 AM 48.7°F9.3°C 45.0°F7.2°C 87% Calm Calm 0.2 mph0.3 kmh 29.97 in1014.9 mb 0.00 in0.0 mm 0.00 in/hr0.0 mm/hr 0.01 in0.3 mm
01:10 AM 48.7°F9.3°C 45.0°F7.2°C 87% Calm Calm -- 29.97 in1014.9 mb 0.00 in0.0 mm 0.00 in/hr0.0 mm/hr 0.01 in0.3 mm
01:00 AM 48.7°F9.3°C 45.0°F7.2°C 87% Calm Calm 0.4 mph0.6 kmh 29.98 in1015.2 mb 0.00 in0.0 mm 0.00 in/hr0.0 mm/hr 0.01 in0.3 mm
12:50 AM 48.7°F9.3°C 45.0°F7.2°C 87% Calm Calm 0.9 mph1.4 kmh 29.98 in1015.2 mb 0.00 in0.0 mm 0.00 in/hr0.0 mm/hr 0.01 in0.3 mm
12:39 AM 48.9°F9.4°C 45.1°F7.3°C 87% 1.6 mph ESE2.6 kmh ESE 0.2 mph0.3 kmh 29.98 in1015.2 mb 0.00 in0.0 mm 0.00 in/hr0.0 mm/hr 0.01 in0.3 mm
12:29 AM 49.3°F9.6°C 45.5°F7.5°C 86% 2.0 mph WNW3.2 kmh WNW 2.2 mph3.5 kmh 29.99 in1015.6 mb 0.00 in0.0 mm 0.00 in/hr0.0 mm/hr 0.01 in0.3 mm
12:19 AM 49.6°F9.8°C 45.7°F7.6°C 86% 2.0 mph NW3.2 kmh NW 1.3 mph2.1 kmh 29.99 in1015.6 mb 0.00 in0.0 mm 0.00 in/hr0.0 mm/hr 0.01 in0.3 mm
12:08 AM 50.2°F10.1°C 46.2°F7.9°C 86% 2.9 mph NW4.7 kmh NW 3.1 mph5.0 kmh 29.99 in1015.6 mb 0.00 in0.0 mm 0.00 in/hr0.0 mm/hr 0.01 in0.3 mm